Priv.Wetterstation: Nettetal-Kaldenkirchen
Wetterdaten: aktuell Samstag, 02.05.2026 17:20
Datum Zeit TempA.(2,5m) Temp. (1,5m) TempAmin2,5m TempAmax2,5m Temp.(-60cm) Temp. (+5cm) Feu.A (2,5m) FeuA. (1,5m) BlattFeu(1m) BoFe (-60cm) Luftdruck Regen (2,8m) Wind (3,8m) Richtg(3,8m) Richtg(3,8m) Sonnenschein Zeit Regen ET UV (2,8m) Solar (2,8m) Taupunkt Windchill Wböen (3,8m) Empfang
02.05.2026 17:20 23,5 °C 23,3 °C 23,5 °C 23,8 °C 14,4 °C 25,0 °C 57 % 56 % 0 lf 200 cb 1015,5 hPa 0,0 mm 4,1 km/h (1 Bft) SO 135 ° 0 min 0 min 0,000 mm 0,0 UV-I 48 W/m² 14,5 °C 23,5 °C 12,4 km/h (3 Bft) 99 %
02.05.2026 17:10 23,8 °C 23,9 °C 23,6 °C 23,9 °C 14,4 °C 26,7 °C 54 % 52 % 0 lf 200 cb 1015,7 hPa 0,0 mm 5,5 km/h (1 Bft) NO 55 ° 0 min 0 min 0,102 mm 0,5 UV-I 75 W/m² 13,9 °C 23,8 °C 14,5 km/h (3 Bft) 99 %
02.05.2026 17:00 23,6 °C 23,9 °C 23,3 °C 23,6 °C 14,4 °C 28,9 °C 56 % 54 % 0 lf 200 cb 1015,7 hPa 0,0 mm 4,9 km/h (1 Bft) SO 144 ° 0 min 0 min 0,000 mm 0,5 UV-I 88 W/m² 14,3 °C 23,6 °C 14,5 km/h (3 Bft) 96 %
02.05.2026 16:50 23,3 °C 23,3 °C 23,3 °C 23,7 °C 14,4 °C 28,9 °C 58 % 55 % 0 lf 200 cb 1016,1 hPa 0,0 mm 5,8 km/h (2 Bft) O-SO 106 ° 0 min 0 min 0,000 mm 0,3 UV-I 93 W/m² 14,6 °C 23,3 °C 14,5 km/h (3 Bft) 98 %
02.05.2026 16:40 23,7 °C 23,9 °C 23,7 °C 25,0 °C 14,4 °C 29,4 °C 56 % 54 % 0 lf 200 cb 1016,3 hPa 0,0 mm 6,1 km/h (2 Bft) O-SO 111 ° 0 min 0 min 0,000 mm 0,2 UV-I 97 W/m² 14,4 °C 23,7 °C 14,5 km/h (3 Bft) 97 %
02.05.2026 16:30 25,0 °C 25,6 °C 25,0 °C 25,3 °C 14,4 °C 31,7 °C 49 % 48 % 0 lf 200 cb 1016,4 hPa 0,0 mm 0,5 km/h (0 Bft) O 88 ° 0 min 0 min 0,000 mm 0,3 UV-I 100 W/m² 13,5 °C 25,0 °C 6,2 km/h (2 Bft) 97 %
02.05.2026 16:20 25,3 °C 25,6 °C 25,3 °C 25,5 °C 14,4 °C 31,1 °C 48 % 47 % 0 lf 200 cb 1016,6 hPa 0,0 mm 0,2 km/h (0 Bft) O 86 ° 0 min 0 min 0,000 mm 0,6 UV-I 118 W/m² 13,5 °C 25,3 °C 2,1 km/h (1 Bft) 100 %
02.05.2026 16:10 25,4 °C 26,7 °C 25,1 °C 25,4 °C 14,4 °C 35,6 °C 48 % 45 % 0 lf 200 cb 1016,6 hPa 0,0 mm 0,9 km/h (0 Bft) O 86 ° 0 min 0 min 0,127 mm 0,7 UV-I 149 W/m² 13,6 °C 25,4 °C 4,1 km/h (1 Bft) 99 %
02.05.2026 16:00 25,1 °C 25,0 °C 25,1 °C 25,3 °C 14,4 °C 31,1 °C 48 % 47 % 0 lf 200 cb 1016,7 hPa 0,0 mm 0,6 km/h (0 Bft) O 97 ° 0 min 0 min 0,000 mm 0,7 UV-I 128 W/m² 13,3 °C 25,1 °C 2,1 km/h (1 Bft) 100 %
02.05.2026 15:50 25,3 °C 26,1 °C 25,2 °C 25,4 °C 14,4 °C 33,9 °C 48 % 45 % 0 lf 200 cb 1016,7 hPa 0,0 mm 1,9 km/h (1 Bft) O 98 ° 0 min 0 min 0,000 mm 0,8 UV-I 142 W/m² 13,5 °C 25,3 °C 6,2 km/h (2 Bft) 100 %
02.05.2026 15:40 25,4 °C 26,1 °C 25,1 °C 25,4 °C 14,4 °C 34,4 °C 49 % 47 % 0 lf 200 cb 1016,7 hPa 0,0 mm 0,6 km/h (0 Bft) O 80 ° 0 min 0 min 0,000 mm 0,8 UV-I 148 W/m² 13,9 °C 25,4 °C 4,1 km/h (1 Bft) 99 %
02.05.2026 15:30 25,2 °C 25,6 °C 25,0 °C 25,2 °C 14,4 °C 33,9 °C 49 % 47 % 0 lf 200 cb 1017,0 hPa 0,0 mm 0,5 km/h (0 Bft) O 82 ° 0 min 0 min 0,000 mm 0,8 UV-I 135 W/m² 13,7 °C 25,2 °C 4,1 km/h (1 Bft) 100 %
02.05.2026 15:20 25,0 °C 25,6 °C 25,0 °C 25,6 °C 14,4 °C 32,8 °C 48 % 45 % 0 lf 200 cb 1017,1 hPa 0,0 mm 0,8 km/h (0 Bft) O-NO 75 ° 0 min 0 min 0,000 mm 0,9 UV-I 137 W/m² 13,2 °C 25,0 °C 4,1 km/h (1 Bft) 99 %
02.05.2026 15:10 25,6 °C 26,1 °C 25,3 °C 25,6 °C 14,4 °C 35,6 °C 48 % 44 % 0 lf 200 cb 1017,3 hPa 0,0 mm 0,5 km/h (0 Bft) O-NO 78 ° 0 min 0 min 0,152 mm 0,9 UV-I 152 W/m² 13,8 °C 25,6 °C 4,1 km/h (1 Bft) 98 %
02.05.2026 15:00 25,4 °C 26,1 °C 25,2 °C 25,4 °C 14,4 °C 35,0 °C 49 % 48 % 0 lf 200 cb 1017,4 hPa 0,0 mm 0,7 km/h (0 Bft) O-NO 76 ° 0 min 0 min 0,000 mm 1,0 UV-I 150 W/m² 13,9 °C 25,4 °C 6,2 km/h (2 Bft) 98 %
02.05.2026 14:50 25,3 °C 26,1 °C 25,1 °C 25,3 °C 14,4 °C 37,2 °C 49 % 45 % 0 lf 200 cb 1017,3 hPa 0,0 mm 1,1 km/h (1 Bft) O 84 ° 0 min 0 min 0,000 mm 1,0 UV-I 174 W/m² 13,8 °C 25,3 °C 10,3 km/h (2 Bft) 97 %
02.05.2026 14:40 25,1 °C 26,1 °C 25,1 °C 25,4 °C 14,4 °C 36,1 °C 50 % 46 % 0 lf 200 cb 1017,4 hPa 0,0 mm 2,8 km/h (1 Bft) SO 135 ° 0 min 0 min 0,000 mm 1,0 UV-I 172 W/m² 13,9 °C 25,1 °C 22,7 km/h (4 Bft) 98 %
02.05.2026 14:30 25,4 °C 26,1 °C 25,1 °C 25,4 °C 14,4 °C 36,1 °C 48 % 46 % 0 lf 200 cb 1017,6 hPa 0,0 mm 2,0 km/h (1 Bft) W-NW 295 ° 0 min 0 min 0,000 mm 1,1 UV-I 185 W/m² 13,6 °C 25,4 °C 12,4 km/h (3 Bft) 97 %
02.05.2026 14:20 25,2 °C 26,1 °C 25,1 °C 25,2 °C 14,4 °C 36,7 °C 49 % 46 % 0 lf 200 cb 1017,8 hPa 0,0 mm 3,6 km/h (1 Bft) O-SO 110 ° 0 min 0 min 0,001 mm 1,1 UV-I 192 W/m² 13,7 °C 25,2 °C 18,6 km/h (3 Bft) 100 %
02.05.2026 14:10 25,2 °C 26,1 °C 25,2 °C 25,9 °C 14,4 °C 37,8 °C 49 % 46 % 0 lf 200 cb 1017,8 hPa 0,0 mm 3,4 km/h (1 Bft) O 96 ° 0 min 0 min 0,406 mm 1,1 UV-I 171 W/m² 13,7 °C 25,2 °C 14,5 km/h (3 Bft) 100 %
02.05.2026 14:00 25,9 °C 26,1 °C 25,3 °C 26,2 °C 14,4 °C 40,6 °C 48 % 45 % 0 lf 200 cb 1017,9 hPa 0,0 mm 2,0 km/h (1 Bft) O-NO 74 ° 0 min 0 min 0,000 mm 1,5 UV-I 293 W/m² 14,0 °C 25,9 °C 14,5 km/h (3 Bft) 100 %
02.05.2026 13:50 25,3 °C 25,6 °C 24,6 °C 25,3 °C 14,4 °C 40,0 °C 49 % 49 % 0 lf 200 cb 1018,0 hPa 0,0 mm 1,6 km/h (1 Bft) O-NO 78 ° 0 min 0 min 0,000 mm 1,9 UV-I 397 W/m² 13,8 °C 25,3 °C 8,3 km/h (2 Bft) 100 %
02.05.2026 13:40 24,7 °C 25,0 °C 24,7 °C 25,2 °C 14,4 °C 35,6 °C 50 % 47 % 0 lf 200 cb 1018,1 hPa 0,0 mm 1,5 km/h (1 Bft) NO 36 ° 10 min 0 min 0,000 mm 1,8 UV-I 503 W/m² 13,6 °C 24,7 °C 8,3 km/h (2 Bft) 99 %
02.05.2026 13:30 25,2 °C 25,6 °C 25,1 °C 25,4 °C 14,4 °C 40,0 °C 48 % 46 % 0 lf 200 cb 1018,2 hPa 0,0 mm 2,9 km/h (1 Bft) O 101 ° 10 min 0 min 0,000 mm 2,2 UV-I 622 W/m² 13,4 °C 25,2 °C 16,5 km/h (3 Bft) 100 %
02.05.2026 13:20 25,3 °C 26,1 °C 25,0 °C 25,6 °C 14,4 °C 41,1 °C 48 % 48 % 0 lf 200 cb 1018,4 hPa 0,0 mm 2,3 km/h (1 Bft) O-NO 69 ° 10 min 0 min 0,000 mm 2,4 UV-I 711 W/m² 13,5 °C 25,3 °C 14,5 km/h (3 Bft) 98 %
02.05.2026 13:10 25,1 °C 25,6 °C 24,9 °C 25,4 °C 14,4 °C 40,0 °C 49 % 47 % 0 lf 200 cb 1018,5 hPa 0,0 mm 1,2 km/h (1 Bft) N-NO 22 ° 10 min 0 min 0,000 mm 2,4 UV-I 694 W/m² 13,6 °C 25,1 °C 6,2 km/h (2 Bft) 100 %
02.05.2026 13:00 24,9 °C 25,0 °C 24,6 °C 25,0 °C 14,4 °C 38,9 °C 49 % 50 % 0 lf 200 cb 1018,6 hPa 0,0 mm 2,1 km/h (1 Bft) O 87 ° 10 min 0 min 0,482 mm 2,2 UV-I 617 W/m² 13,4 °C 24,9 °C 14,5 km/h (3 Bft) 99 %
02.05.2026 12:50 24,6 °C 25,0 °C 23,1 °C 24,6 °C 14,4 °C 38,3 °C 51 % 51 % 0 lf 200 cb 1018,7 hPa 0,0 mm 4,0 km/h (1 Bft) O-SO 104 ° 10 min 0 min 0,000 mm 2,2 UV-I 685 W/m² 13,8 °C 24,6 °C 14,5 km/h (3 Bft) 98 %
02.05.2026 12:30 23,3 °C 23,9 °C 23,3 °C 24,1 °C 14,4 °C 38,3 °C 52 % 50 % 0 lf 200 cb 1018,9 hPa 0,0 mm 3,9 km/h (1 Bft) O-SO 103 ° 10 min 0 min 0,000 mm 2,2 UV-I 636 W/m² 12,9 °C 23,3 °C 12,4 km/h (3 Bft) 97 %
02.05.2026 12:20 23,4 °C 23,9 °C 23,1 °C 23,8 °C 14,4 °C 38,3 °C 52 % 51 % 0 lf 200 cb 1018,9 hPa 0,0 mm 3,5 km/h (1 Bft) O-SO 109 ° 10 min 0 min 0,000 mm 2,2 UV-I 677 W/m² 13,0 °C 23,4 °C 20,7 km/h (4 Bft) 99 %
02.05.2026 12:10 23,1 °C 23,3 °C 22,5 °C 23,1 °C 14,4 °C 38,3 °C 53 % 52 % 0 lf 200 cb 1019,1 hPa 0,0 mm 3,4 km/h (1 Bft) O 92 ° 10 min 0 min 0,000 mm 2,2 UV-I 702 W/m² 13,0 °C 23,1 °C 14,5 km/h (3 Bft) 99 %
02.05.2026 12:00 22,9 °C 23,3 °C 21,6 °C 23,1 °C 14,4 °C 40,0 °C 52 % 51 % 0 lf 200 cb 1019,2 hPa 0,0 mm 2,7 km/h (1 Bft) O-SO 107 ° 10 min 0 min 0,381 mm 2,2 UV-I 685 W/m² 12,5 °C 22,9 °C 16,5 km/h (3 Bft) 100 %
02.05.2026 11:50 21,6 °C 22,2 °C 21,1 °C 21,8 °C 14,4 °C 38,9 °C 57 % 55 % 0 lf 200 cb 1019,1 hPa 0,0 mm 2,9 km/h (1 Bft) O-SO 115 ° 10 min 0 min 0,000 mm 1,9 UV-I 629 W/m² 12,7 °C 21,6 °C 8,3 km/h (2 Bft) 100 %
02.05.2026 11:40 21,1 °C 22,2 °C 20,6 °C 21,1 °C 14,4 °C 37,8 °C 56 % 55 % 0 lf 200 cb 1019,2 hPa 0,0 mm 5,0 km/h (1 Bft) O-SO 107 ° 10 min 0 min 0,000 mm 1,8 UV-I 568 W/m² 12,0 °C 21,1 °C 12,4 km/h (3 Bft) 100 %
02.05.2026 11:30 20,6 °C 21,1 °C 20,6 °C 21,1 °C 14,4 °C 35,6 °C 56 % 54 % 0 lf 200 cb 1019,3 hPa 0,0 mm 3,8 km/h (1 Bft) O 100 ° 10 min 0 min 0,000 mm 1,5 UV-I 445 W/m² 11,5 °C 20,6 °C 8,3 km/h (2 Bft) 99 %
02.05.2026 11:20 21,0 °C 21,1 °C 20,7 °C 21,1 °C 14,4 °C 33,3 °C 55 % 54 % 0 lf 200 cb 1019,4 hPa 0,0 mm 2,8 km/h (1 Bft) O 90 ° 10 min 0 min 0,000 mm 1,4 UV-I 446 W/m² 11,6 °C 21,0 °C 10,3 km/h (2 Bft) 100 %
02.05.2026 11:10 20,7 °C 20,6 °C 20,5 °C 21,1 °C 14,4 °C 32,2 °C 56 % 56 % 0 lf 200 cb 1019,4 hPa 0,0 mm 2,7 km/h (1 Bft) SO 124 ° 10 min 0 min 0,000 mm 1,2 UV-I 378 W/m² 11,6 °C 20,7 °C 8,3 km/h (2 Bft) 100 %
02.05.2026 11:00 20,5 °C 20,0 °C 20,4 °C 20,9 °C 14,4 °C 31,7 °C 57 % 58 % 0 lf 200 cb 1019,6 hPa 0,0 mm 2,3 km/h (1 Bft) O-SO 104 ° 0 min 0 min 0,153 mm 1,1 UV-I 346 W/m² 11,7 °C 20,5 °C 12,4 km/h (3 Bft) 99 %
02.05.2026 10:50 20,4 °C 20,0 °C 19,8 °C 20,4 °C 14,4 °C 30,0 °C 58 % 58 % 0 lf 200 cb 1019,7 hPa 0,0 mm 0,8 km/h (0 Bft) O-NO 69 ° 0 min 0 min 0,000 mm 1,0 UV-I 317 W/m² 11,9 °C 20,4 °C 8,3 km/h (2 Bft) 97 %
02.05.2026 10:40 19,8 °C 19,4 °C 19,3 °C 19,8 °C 14,4 °C 25,6 °C 58 % 59 % 0 lf 200 cb 1019,7 hPa 0,0 mm 0,2 km/h (0 Bft) O 90 ° 0 min 0 min 0,000 mm 0,8 UV-I 209 W/m² 11,3 °C 19,8 °C 2,1 km/h (1 Bft) 98 %
02.05.2026 10:30 19,4 °C 18,9 °C 19,4 °C 19,9 °C 14,4 °C 23,9 °C 57 % 57 % 0 lf 200 cb 1019,6 hPa 0,0 mm 0,1 km/h (0 Bft) O 91 ° 0 min 0 min 0,000 mm 0,6 UV-I 134 W/m² 10,7 °C 19,4 °C 2,1 km/h (1 Bft) 98 %
02.05.2026 10:20 19,9 °C 18,9 °C 19,9 °C 20,3 °C 14,4 °C 25,0 °C 55 % 57 % 0 lf 200 cb 1019,6 hPa 0,0 mm 0,2 km/h (0 Bft) O 91 ° 0 min 0 min 0,000 mm 0,6 UV-I 141 W/m² 10,6 °C 19,9 °C 4,1 km/h (1 Bft) 99 %
02.05.2026 10:10 20,3 °C 18,9 °C 20,2 °C 20,4 °C 14,4 °C 26,1 °C 55 % 57 % 0 lf 200 cb 1019,7 hPa 0,0 mm 0,5 km/h (0 Bft) O 92 ° 0 min 0 min 0,000 mm 0,6 UV-I 170 W/m² 11,0 °C 20,3 °C 4,1 km/h (1 Bft) 99 %
02.05.2026 10:00 20,2 °C 18,9 °C 19,2 °C 20,2 °C 14,4 °C 31,1 °C 54 % 54 % 0 lf 200 cb 1019,5 hPa 0,0 mm 1,9 km/h (1 Bft) O 92 ° 10 min 0 min 0,254 mm 0,8 UV-I 378 W/m² 10,6 °C 20,2 °C 8,3 km/h (2 Bft) 99 %
02.05.2026 09:50 19,2 °C 18,3 °C 18,2 °C 19,2 °C 14,4 °C 35,6 °C 53 % 53 % 0 lf 200 cb 1019,7 hPa 0,0 mm 2,8 km/h (1 Bft) O 94 ° 10 min 0 min 0,000 mm 0,9 UV-I 504 W/m² 9,4 °C 19,2 °C 8,3 km/h (2 Bft) 100 %
02.05.2026 09:40 18,2 °C 17,8 °C 17,8 °C 18,2 °C 14,4 °C 32,8 °C 53 % 54 % 0 lf 200 cb 1019,7 hPa 0,0 mm 3,4 km/h (1 Bft) O 91 ° 10 min 0 min 0,000 mm 0,8 UV-I 474 W/m² 8,5 °C 18,2 °C 8,3 km/h (2 Bft) 99 %
02.05.2026 09:30 17,9 °C 16,7 °C 16,4 °C 18,1 °C 14,4 °C 31,7 °C 53 % 55 % 0 lf 200 cb 1019,7 hPa 0,0 mm 3,1 km/h (1 Bft) O 90 ° 10 min 0 min 0,000 mm 0,7 UV-I 448 W/m² 8,2 °C 17,9 °C 8,3 km/h (2 Bft) 100 %
02.05.2026 09:20 16,4 °C 14,4 °C 15,7 °C 16,4 °C 14,4 °C 28,9 °C 58 % 61 % 0 lf 200 cb 1019,8 hPa 0,0 mm 3,1 km/h (1 Bft) O 89 ° 10 min 0 min 0,000 mm 0,6 UV-I 385 W/m² 8,1 °C 16,4 °C 6,2 km/h (2 Bft) 100 %
02.05.2026 09:10 15,7 °C 13,9 °C 15,3 °C 15,7 °C 14,4 °C 21,1 °C 59 % 63 % 0 lf 200 cb 1019,8 hPa 0,0 mm 1,1 km/h (1 Bft) O 101 ° 0 min 0 min 0,076 mm 0,1 UV-I 163 W/m² 7,7 °C 15,7 °C 4,1 km/h (1 Bft) 100 %
02.05.2026 09:00 15,3 °C 13,9 °C 15,0 °C 15,3 °C 14,4 °C 18,3 °C 61 % 65 % 0 lf 200 cb 1019,8 hPa 0,0 mm 1,0 km/h (0 Bft) O 101 ° 0 min 0 min 0,000 mm 0,0 UV-I 89 W/m² 7,8 °C 15,3 °C 4,1 km/h (1 Bft) 100 %
02.05.2026 08:50 15,0 °C 13,3 °C 14,4 °C 15,0 °C 14,4 °C 19,4 °C 63 % 65 % 0 lf 200 cb 1019,8 hPa 0,0 mm 1,9 km/h (1 Bft) O 101 ° 0 min 0 min 0,000 mm 0,0 UV-I 101 W/m² 8,0 °C 15,0 °C 6,2 km/h (2 Bft) 98 %
02.05.2026 08:40 14,4 °C 13,3 °C 13,7 °C 14,4 °C 14,4 °C 21,1 °C 65 % 66 % 0 lf 200 cb 1019,8 hPa 0,0 mm 2,3 km/h (1 Bft) O 101 ° 0 min 0 min 0,000 mm 0,0 UV-I 184 W/m² 7,9 °C 14,4 °C 6,2 km/h (2 Bft) 98 %
02.05.2026 08:30 13,7 °C 12,8 °C 13,2 °C 13,7 °C 14,4 °C 18,3 °C 66 % 66 % 0 lf 200 cb 1019,8 hPa 0,0 mm 2,8 km/h (1 Bft) O 101 ° 0 min 0 min 0,000 mm 0,0 UV-I 105 W/m² 7,5 °C 13,7 °C 6,2 km/h (2 Bft) 97 %
02.05.2026 08:20 13,2 °C 12,8 °C 12,8 °C 13,2 °C 14,4 °C 17,2 °C 67 % 66 % 0 lf 200 cb 1019,8 hPa 0,0 mm 2,7 km/h (1 Bft) O 101 ° 0 min 0 min 0,000 mm 0,0 UV-I 93 W/m² 7,2 °C 13,2 °C 6,2 km/h (2 Bft) 98 %
02.05.2026 08:10 12,8 °C 12,2 °C 12,4 °C 12,8 °C 14,4 °C 15,0 °C 67 % 65 % 0 lf 200 cb 1019,8 hPa 0,0 mm 3,6 km/h (1 Bft) O 101 ° 0 min 0 min 0,000 mm 0,0 UV-I 49 W/m² 6,8 °C 12,8 °C 6,2 km/h (2 Bft) 99 %
02.05.2026 08:00 12,4 °C 12,2 °C 11,7 °C 12,4 °C 14,4 °C 13,9 °C 68 % 65 % 0 lf 200 cb 1019,8 hPa 0,0 mm 3,0 km/h (1 Bft) O 94 ° 0 min 0 min 0,051 mm 0,0 UV-I 39 W/m² 6,7 °C 12,4 °C 6,2 km/h (2 Bft) 100 %
02.05.2026 07:50 11,7 °C 12,2 °C 11,2 °C 11,7 °C 14,4 °C 15,0 °C 69 % 64 % 0 lf 200 cb 1019,7 hPa 0,0 mm 3,7 km/h (1 Bft) SO 132 ° 0 min 0 min 0,000 mm 0,0 UV-I 124 W/m² 6,2 °C 11,7 °C 8,3 km/h (2 Bft) 100 %
02.05.2026 07:40 11,2 °C 11,1 °C 10,8 °C 11,2 °C 14,4 °C 12,2 °C 69 % 66 % 0 lf 200 cb 1019,6 hPa 0,0 mm 2,4 km/h (1 Bft) O-SO 105 ° 0 min 0 min 0,000 mm 0,0 UV-I 59 W/m² 5,7 °C 11,2 °C 6,2 km/h (2 Bft) 100 %
02.05.2026 07:30 10,8 °C 9,4 °C 10,5 °C 10,8 °C 14,4 °C 11,1 °C 69 % 70 % 0 lf 200 cb 1019,5 hPa 0,0 mm 2,6 km/h (1 Bft) O 93 ° 0 min 0 min 0,000 mm 0,0 UV-I 36 W/m² 5,3 °C 10,8 °C 6,2 km/h (2 Bft) 100 %
02.05.2026 07:20 10,5 °C 8,9 °C 10,2 °C 10,5 °C 14,4 °C 10,0 °C 69 % 70 % 0 lf 200 cb 1019,6 hPa 0,0 mm 2,4 km/h (1 Bft) O-SO 118 ° 0 min 0 min 0,000 mm 0,0 UV-I 29 W/m² 5,1 °C 10,5 °C 6,2 km/h (2 Bft) 99 %
02.05.2026 07:10 10,2 °C 8,9 °C 10,1 °C 10,2 °C 14,4 °C 9,4 °C 69 % 70 % 0 lf 200 cb 1019,6 hPa 0,0 mm 1,4 km/h (1 Bft) O-SO 119 ° 0 min 0 min 0,025 mm 0,0 UV-I 26 W/m² 4,8 °C 10,2 °C 4,1 km/h (1 Bft) 97 %
02.05.2026 07:00 10,1 °C 8,9 °C 9,9 °C 10,1 °C 14,4 °C 8,9 °C 69 % 69 % 0 lf 200 cb 1019,5 hPa 0,0 mm 2,0 km/h (1 Bft) O-SO 119 ° 0 min 0 min 0,000 mm 0,0 UV-I 20 W/m² 4,7 °C 10,1 °C 4,1 km/h (1 Bft) 98 %
02.05.2026 06:50 9,9 °C 8,9 °C 9,9 °C 9,9 °C 14,4 °C 8,3 °C 69 % 68 % 0 lf 200 cb 1019,5 hPa 0,0 mm 0,6 km/h (0 Bft) O-SO 119 ° 0 min 0 min 0,000 mm 0,0 UV-I 14 W/m² 4,5 °C 9,9 °C 4,1 km/h (1 Bft) 97 %
02.05.2026 06:40 9,9 °C 8,9 °C 9,9 °C 10,0 °C 14,4 °C 7,2 °C 69 % 67 % 0 lf 200 cb 1019,5 hPa 0,0 mm 0,0 km/h (0 Bft) O-SO 119 ° 0 min 0 min 0,000 mm 0,0 UV-I 10 W/m² 4,5 °C 9,9 °C 0,0 km/h (0 Bft) 93 %
02.05.2026 06:30 10,0 °C 8,9 °C 10,0 °C 10,1 °C 14,4 °C 6,7 °C 68 % 67 % 0 lf 200 cb 1019,5 hPa 0,0 mm 0,0 km/h (0 Bft) O-SO 119 ° 0 min 0 min 0,000 mm 0,0 UV-I 6 W/m² 4,4 °C 10,0 °C 0,0 km/h (0 Bft) 93 %
02.05.2026 06:20 10,1 °C 8,9 °C 10,1 °C 10,2 °C 14,4 °C 6,7 °C 67 % 66 % 0 lf 200 cb 1019,6 hPa 0,0 mm 0,0 km/h (0 Bft) O-SO 119 ° 0 min 0 min 0,000 mm 0,0 UV-I 1 W/m² 4,3 °C 10,1 °C 0,0 km/h (0 Bft) 90 %
02.05.2026 06:10 10,2 °C 8,9 °C 10,2 °C 10,3 °C 14,4 °C 6,7 °C 67 % 66 % 0 lf 200 cb 1019,6 hPa 0,0 mm 0,0 km/h (0 Bft) O-SO 119 ° 0 min 0 min 0,000 mm 0,0 UV-I 0 W/m² 4,4 °C 10,2 °C 0,0 km/h (0 Bft) 94 %
02.05.2026 06:00 10,3 °C 8,9 °C 10,2 °C 10,3 °C 14,4 °C 6,7 °C 67 % 66 % 0 lf 200 cb 1019,6 hPa 0,0 mm 0,0 km/h (0 Bft) O-SO 119 ° 0 min 0 min 0,000 mm 0,0 UV-I 0 W/m² 4,4 °C 10,3 °C 0,0 km/h (0 Bft) 93 %
02.05.2026 05:50 10,3 °C 8,9 °C 10,3 °C 10,4 °C 14,4 °C 6,7 °C 66 % 66 % 0 lf 200 cb 1019,6 hPa 0,0 mm 0,0 km/h (0 Bft) O-SO 119 ° 0 min 0 min 0,000 mm 0,0 UV-I 0 W/m² 4,2 °C 10,3 °C 0,0 km/h (0 Bft) 93 %
02.05.2026 05:40 10,4 °C 8,9 °C 10,3 °C 10,4 °C 14,4 °C 6,7 °C 66 % 65 % 0 lf 200 cb 1019,6 hPa 0,0 mm 0,0 km/h (0 Bft) O-SO 119 ° 0 min 0 min 0,000 mm 0,0 UV-I 0 W/m² 4,3 °C 10,4 °C 0,0 km/h (0 Bft) 95 %
02.05.2026 05:30 10,4 °C 9,4 °C 10,4 °C 10,6 °C 14,4 °C 6,7 °C 66 % 65 % 0 lf 200 cb 1019,7 hPa 0,0 mm 0,4 km/h (0 Bft) O-SO 119 ° 0 min 0 min 0,000 mm 0,0 UV-I 0 W/m² 4,3 °C 10,4 °C 2,1 km/h (1 Bft) 94 %
02.05.2026 05:20 10,6 °C 9,4 °C 10,6 °C 10,8 °C 14,4 °C 6,1 °C 65 % 64 % 0 lf 200 cb 1019,8 hPa 0,0 mm 0,0 km/h (0 Bft) O-SO 119 ° 0 min 0 min 0,000 mm 0,0 UV-I 0 W/m² 4,3 °C 10,6 °C 0,0 km/h (0 Bft) 95 %
02.05.2026 05:10 10,8 °C 9,4 °C 10,8 °C 10,9 °C 14,4 °C 6,1 °C 65 % 64 % 0 lf 200 cb 1019,8 hPa 0,0 mm 0,0 km/h (0 Bft) O-SO 119 ° 0 min 0 min 0,025 mm 0,0 UV-I 0 W/m² 4,5 °C 10,8 °C 0,0 km/h (0 Bft) 91 %
02.05.2026 05:00 10,9 °C 9,4 °C 10,9 °C 11,0 °C 14,4 °C 6,7 °C 64 % 64 % 0 lf 200 cb 1019,9 hPa 0,0 mm 0,0 km/h (0 Bft) O-SO 119 ° 0 min 0 min 0,000 mm 0,0 UV-I 0 W/m² 4,4 °C 10,9 °C 0,0 km/h (0 Bft) 89 %
02.05.2026 04:50 11,0 °C 9,4 °C 11,0 °C 11,1 °C 14,4 °C 7,2 °C 64 % 64 % 0 lf 200 cb 1020,0 hPa 0,0 mm 0,3 km/h (0 Bft) O-SO 119 ° 0 min 0 min 0,000 mm 0,0 UV-I 0 W/m² 4,5 °C 11,0 °C 2,1 km/h (1 Bft) 91 %
02.05.2026 04:40 11,1 °C 9,4 °C 11,0 °C 11,1 °C 14,4 °C 7,8 °C 64 % 64 % 0 lf 200 cb 1020,1 hPa 0,0 mm 0,6 km/h (0 Bft) O-SO 119 ° 0 min 0 min 0,000 mm 0,0 UV-I 0 W/m² 4,6 °C 11,1 °C 2,1 km/h (1 Bft) 91 %
02.05.2026 04:30 11,0 °C 9,4 °C 11,0 °C 11,1 °C 14,4 °C 6,7 °C 64 % 63 % 0 lf 200 cb 1020,2 hPa 0,0 mm 0,7 km/h (0 Bft) O-SO 119 ° 0 min 0 min 0,000 mm 0,0 UV-I 0 W/m² 4,5 °C 11,0 °C 4,1 km/h (1 Bft) 93 %
02.05.2026 04:20 11,1 °C 10,0 °C 11,1 °C 11,2 °C 14,4 °C 6,1 °C 64 % 62 % 0 lf 200 cb 1020,3 hPa 0,0 mm 0,0 km/h (0 Bft) O-SO 119 ° 0 min 0 min 0,000 mm 0,0 UV-I 0 W/m² 4,6 °C 11,1 °C 0,0 km/h (0 Bft) 91 %
02.05.2026 04:10 11,2 °C 10,0 °C 11,2 °C 11,3 °C 14,4 °C 6,7 °C 64 % 61 % 0 lf 200 cb 1020,3 hPa 0,0 mm 0,0 km/h (0 Bft) O-SO 119 ° 0 min 0 min 0,000 mm 0,0 UV-I 0 W/m² 4,6 °C 11,2 °C 0,0 km/h (0 Bft) 90 %
02.05.2026 04:00 11,3 °C 10,0 °C 11,3 °C 11,5 °C 14,4 °C 6,1 °C 63 % 61 % 0 lf 200 cb 1020,4 hPa 0,0 mm 0,0 km/h (0 Bft) O-SO 119 ° 0 min 0 min 0,026 mm 0,0 UV-I 0 W/m² 4,5 °C 11,3 °C 0,0 km/h (0 Bft) 91 %
02.05.2026 03:50 11,5 °C 10,6 °C 11,5 °C 11,8 °C 14,4 °C 6,1 °C 63 % 60 % 0 lf 200 cb 1020,5 hPa 0,0 mm 0,0 km/h (0 Bft) O-SO 119 ° 0 min 0 min 0,000 mm 0,0 UV-I 0 W/m² 4,7 °C 11,5 °C 0,0 km/h (0 Bft) 91 %
02.05.2026 03:40 11,8 °C 10,6 °C 11,8 °C 11,9 °C 14,4 °C 6,7 °C 62 % 60 % 0 lf 200 cb 1020,5 hPa 0,0 mm 0,0 km/h (0 Bft) O-SO 119 ° 0 min 0 min 0,000 mm 0,0 UV-I 0 W/m² 4,8 °C 11,8 °C 0,0 km/h (0 Bft) 89 %
02.05.2026 03:30 11,9 °C 10,6 °C 11,9 °C 12,2 °C 13,9 °C 6,7 °C 61 % 59 % 0 lf 200 cb 1020,6 hPa 0,0 mm 0,0 km/h (0 Bft) O-SO 119 ° 0 min 0 min 0,000 mm 0,0 UV-I 0 W/m² 4,6 °C 11,9 °C 0,0 km/h (0 Bft) 93 %
02.05.2026 03:20 12,2 °C 11,1 °C 12,2 °C 12,4 °C 13,9 °C 6,7 °C 60 % 59 % 0 lf 200 cb 1020,7 hPa 0,0 mm 0,0 km/h (0 Bft) O-SO 119 ° 0 min 0 min 0,000 mm 0,0 UV-I 0 W/m² 4,7 °C 12,2 °C 0,0 km/h (0 Bft) 85 %
02.05.2026 03:10 12,4 °C 11,1 °C 12,4 °C 12,7 °C 13,9 °C 6,7 °C 60 % 58 % 0 lf 200 cb 1020,7 hPa 0,0 mm 0,0 km/h (0 Bft) O-SO 119 ° 0 min 0 min 0,000 mm 0,0 UV-I 0 W/m² 4,9 °C 12,4 °C 0,0 km/h (0 Bft) 83 %
02.05.2026 03:00 12,7 °C 11,7 °C 12,7 °C 13,0 °C 13,9 °C 7,2 °C 59 % 58 % 0 lf 200 cb 1020,7 hPa 0,0 mm 0,0 km/h (0 Bft) O-SO 119 ° 0 min 0 min 0,025 mm 0,0 UV-I 0 W/m² 4,9 °C 12,7 °C 0,0 km/h (0 Bft) 91 %
02.05.2026 02:50 13,0 °C 11,7 °C 13,0 °C 13,3 °C 13,9 °C 7,2 °C 58 % 57 % 0 lf 200 cb 1020,9 hPa 0,0 mm 0,0 km/h (0 Bft) O-SO 119 ° 0 min 0 min 0,000 mm 0,0 UV-I 0 W/m² 4,9 °C 13,0 °C 0,0 km/h (0 Bft) 91 %
02.05.2026 02:40 13,3 °C 11,7 °C 13,3 °C 13,4 °C 13,9 °C 7,8 °C 57 % 56 % 0 lf 200 cb 1021,0 hPa 0,0 mm 0,0 km/h (0 Bft) O-SO 119 ° 0 min 0 min 0,000 mm 0,0 UV-I 0 W/m² 5,0 °C 13,3 °C 0,0 km/h (0 Bft) 93 %
02.05.2026 02:30 13,4 °C 12,2 °C 13,4 °C 13,6 °C 13,9 °C 7,8 °C 55 % 56 % 0 lf 200 cb 1021,0 hPa 0,0 mm 0,0 km/h (0 Bft) O-SO 119 ° 0 min 0 min 0,000 mm 0,0 UV-I 0 W/m² 4,5 °C 13,4 °C 0,0 km/h (0 Bft) 92 %
02.05.2026 02:20 13,6 °C 12,2 °C 13,6 °C 13,8 °C 13,9 °C 8,3 °C 55 % 55 % 0 lf 200 cb 1021,1 hPa 0,0 mm 0,0 km/h (0 Bft) O-SO 119 ° 0 min 0 min 0,000 mm 0,0 UV-I 0 W/m² 4,7 °C 13,6 °C 0,0 km/h (0 Bft) 95 %
02.05.2026 02:10 13,8 °C 12,2 °C 13,8 °C 14,1 °C 13,9 °C 8,3 °C 54 % 54 % 0 lf 200 cb 1021,2 hPa 0,0 mm 0,0 km/h (0 Bft) O-SO 119 ° 0 min 0 min 0,000 mm 0,0 UV-I 0 W/m² 4,7 °C 13,8 °C 0,0 km/h (0 Bft) 96 %
02.05.2026 02:00 14,1 °C 12,8 °C 14,1 °C 14,3 °C 13,9 °C 8,3 °C 54 % 53 % 0 lf 200 cb 1021,3 hPa 0,0 mm 0,0 km/h (0 Bft) O-SO 119 ° 0 min 0 min 0,026 mm 0,0 UV-I 0 W/m² 4,9 °C 14,1 °C 0,0 km/h (0 Bft) 96 %
02.05.2026 01:50 14,3 °C 12,8 °C 14,3 °C 14,4 °C 13,9 °C 8,3 °C 53 % 53 % 0 lf 200 cb 1021,4 hPa 0,0 mm 0,0 km/h (0 Bft) O-SO 119 ° 0 min 0 min 0,000 mm 0,0 UV-I 0 W/m² 4,9 °C 14,3 °C 0,0 km/h (0 Bft) 97 %
02.05.2026 01:40 14,4 °C 12,8 °C 14,4 °C 14,6 °C 13,9 °C 8,9 °C 53 % 53 % 0 lf 200 cb 1021,4 hPa 0,0 mm 0,0 km/h (0 Bft) O-SO 119 ° 0 min 0 min 0,000 mm 0,0 UV-I 0 W/m² 4,9 °C 14,4 °C 0,0 km/h (0 Bft) 97 %
02.05.2026 01:30 14,6 °C 13,3 °C 14,6 °C 14,8 °C 13,9 °C 8,9 °C 52 % 52 % 0 lf 200 cb 1021,5 hPa 0,0 mm 0,2 km/h (0 Bft) O-SO 119 ° 0 min 0 min 0,000 mm 0,0 UV-I 0 W/m² 4,9 °C 14,6 °C 2,1 km/h (1 Bft) 94 %
02.05.2026 01:20 14,8 °C 13,3 °C 14,8 °C 14,9 °C 13,9 °C 9,4 °C 52 % 52 % 0 lf 200 cb 1021,6 hPa 0,0 mm 0,1 km/h (0 Bft) O-SO 119 ° 0 min 0 min 0,000 mm 0,0 UV-I 0 W/m² 5,0 °C 14,8 °C 2,1 km/h (1 Bft) 95 %
02.05.2026 01:10 14,9 °C 13,3 °C 14,9 °C 15,2 °C 13,9 °C 10,0 °C 51 % 52 % 0 lf 200 cb 1021,7 hPa 0,0 mm 0,8 km/h (0 Bft) O-SO 119 ° 0 min 0 min 0,000 mm 0,0 UV-I 0 W/m² 4,9 °C 14,9 °C 2,1 km/h (1 Bft) 95 %
02.05.2026 01:00 15,2 °C 13,9 °C 15,2 °C 15,5 °C 13,9 °C 9,4 °C 50 % 51 % 0 lf 200 cb 1021,7 hPa 0,0 mm 0,0 km/h (0 Bft) O-SO 119 ° 0 min 0 min 0,000 mm 0,0 UV-I 0 W/m² 4,8 °C 15,2 °C 0,0 km/h (0 Bft) 95 %
02.05.2026 00:50 15,5 °C 13,9 °C 15,5 °C 15,8 °C 13,9 °C 9,4 °C 49 % 50 % 0 lf 200 cb 1021,8 hPa 0,0 mm 0,0 km/h (0 Bft) O-SO 119 ° 0 min 0 min 0,000 mm 0,0 UV-I 0 W/m² 4,8 °C 15,5 °C 0,0 km/h (0 Bft) 92 %
02.05.2026 00:40 15,8 °C 14,4 °C 15,8 °C 16,1 °C 13,9 °C 9,4 °C 48 % 50 % 0 lf 200 cb 1021,8 hPa 0,0 mm 0,0 km/h (0 Bft) O-SO 119 ° 0 min 0 min 0,000 mm 0,0 UV-I 0 W/m² 4,8 °C 15,8 °C 0,0 km/h (0 Bft) 94 %
02.05.2026 00:30 16,1 °C 14,4 °C 16,1 °C 16,2 °C 13,9 °C 9,4 °C 48 % 48 % 0 lf 200 cb 1021,8 hPa 0,0 mm 0,0 km/h (0 Bft) O-SO 119 ° 0 min 0 min 0,000 mm 0,0 UV-I 0 W/m² 5,1 °C 16,1 °C 0,0 km/h (0 Bft) 91 %
02.05.2026 00:20 16,2 °C 15,0 °C 16,2 °C 16,6 °C 13,9 °C 10,6 °C 47 % 47 % 0 lf 200 cb 1021,7 hPa 0,0 mm 0,0 km/h (0 Bft) O-SO 119 ° 0 min 0 min 0,000 mm 0,0 UV-I 0 W/m² 4,9 °C 16,2 °C 0,0 km/h (0 Bft) 96 %
02.05.2026 00:10 16,4 °C 15,6 °C 16,4 °C 16,6 °C 13,9 °C 10,6 °C 47 % 46 % 0 lf 200 cb 1021,8 hPa 0,0 mm 0,0 km/h (0 Bft) N 0 ° 0 min 0 min 0,000 mm 0,0 UV-I 0 W/m² 5,1 °C 16,4 °C 0,0 km/h (0 Bft) 100 %
02.05.2026 00:00 16,6 °C 15,6 °C 16,6 °C 16,8 °C 13,9 °C 11,1 °C 46 % 45 % 0 lf 200 cb 1021,8 hPa 0,0 mm 0,0 km/h (0 Bft) O-SO 112 ° 0 min 0 min 0,025 mm 0,0 UV-I 0 W/m² 4,9 °C 16,6 °C 2,1 km/h (1 Bft) 97 %
01.05.2026 23:50 16,8 °C 16,1 °C 16,8 °C 17,0 °C 13,9 °C 11,1 °C 45 % 44 % 0 lf 200 cb 1021,8 hPa 0,0 mm 0,2 km/h (0 Bft) O-SO 119 ° 0 min 0 min 0,000 mm 0,0 UV-I 0 W/m² 4,8 °C 16,8 °C 2,1 km/h (1 Bft) 92 %
01.05.2026 23:40 17,0 °C 16,1 °C 17,0 °C 17,2 °C 13,9 °C 11,7 °C 44 % 43 % 0 lf 200 cb 1021,9 hPa 0,0 mm 0,2 km/h (0 Bft) O-SO 119 ° 0 min 0 min 0,000 mm 0,0 UV-I 0 W/m² 4,7 °C 17,0 °C 2,1 km/h (1 Bft) 94 %
01.05.2026 23:30 17,2 °C 16,1 °C 17,2 °C 17,4 °C 13,9 °C 11,7 °C 44 % 43 % 0 lf 200 cb 1021,8 hPa 0,0 mm 0,6 km/h (0 Bft) O-SO 119 ° 0 min 0 min 0,000 mm 0,0 UV-I 0 W/m² 4,8 °C 17,2 °C 4,1 km/h (1 Bft) 96 %
01.05.2026 23:20 17,4 °C 16,7 °C 17,4 °C 17,7 °C 13,9 °C 12,8 °C 43 % 42 % 0 lf 200 cb 1021,9 hPa 0,0 mm 0,5 km/h (0 Bft) O-SO 119 ° 0 min 0 min 0,000 mm 0,0 UV-I 0 W/m² 4,7 °C 17,4 °C 4,1 km/h (1 Bft) 95 %
01.05.2026 23:10 17,7 °C 17,2 °C 17,7 °C 17,9 °C 13,9 °C 12,8 °C 43 % 41 % 0 lf 200 cb 1021,8 hPa 0,0 mm 1,4 km/h (1 Bft) O-SO 119 ° 0 min 0 min 0,050 mm 0,0 UV-I 0 W/m² 5,0 °C 17,7 °C 4,1 km/h (1 Bft) 95 %
01.05.2026 23:00 17,9 °C 17,2 °C 17,9 °C 18,2 °C 13,9 °C 13,3 °C 42 % 41 % 0 lf 200 cb 1021,8 hPa 0,0 mm 2,2 km/h (1 Bft) O-SO 119 ° 0 min 0 min 0,000 mm 0,0 UV-I 0 W/m² 4,8 °C 17,9 °C 6,2 km/h (2 Bft) 94 %
01.05.2026 22:50 18,2 °C 17,2 °C 18,2 °C 18,5 °C 13,9 °C 13,9 °C 42 % 41 % 0 lf 200 cb 1021,8 hPa 0,0 mm 2,3 km/h (1 Bft) O-SO 119 ° 0 min 0 min 0,000 mm 0,0 UV-I 0 W/m² 5,1 °C 18,2 °C 6,2 km/h (2 Bft) 95 %
01.05.2026 22:40 18,5 °C 17,8 °C 18,5 °C 18,8 °C 13,9 °C 13,9 °C 41 % 40 % 0 lf 200 cb 1021,8 hPa 0,0 mm 1,8 km/h (1 Bft) O-SO 119 ° 0 min 0 min 0,000 mm 0,0 UV-I 0 W/m² 5,0 °C 18,5 °C 4,1 km/h (1 Bft) 93 %
01.05.2026 22:30 18,8 °C 18,3 °C 18,8 °C 19,1 °C 13,9 °C 14,4 °C 41 % 39 % 0 lf 200 cb 1021,8 hPa 0,0 mm 1,9 km/h (1 Bft) O-SO 119 ° 0 min 0 min 0,000 mm 0,0 UV-I 0 W/m² 5,3 °C 18,8 °C 6,2 km/h (2 Bft) 90 %
01.05.2026 22:20 19,1 °C 18,3 °C 19,1 °C 19,3 °C 13,9 °C 14,4 °C 40 % 39 % 0 lf 200 cb 1021,9 hPa 0,0 mm 2,1 km/h (1 Bft) O-SO 120 ° 0 min 0 min 0,000 mm 0,0 UV-I 0 W/m² 5,2 °C 19,1 °C 6,2 km/h (2 Bft) 94 %
01.05.2026 22:10 19,3 °C 18,3 °C 19,3 °C 19,4 °C 13,9 °C 15,0 °C 39 % 38 % 0 lf 200 cb 1021,9 hPa 0,0 mm 2,0 km/h (1 Bft) O-SO 109 ° 0 min 0 min 0,051 mm 0,0 UV-I 0 W/m² 5,0 °C 19,3 °C 6,2 km/h (2 Bft) 96 %
01.05.2026 22:00 19,4 °C 18,9 °C 19,4 °C 19,6 °C 13,9 °C 15,6 °C 39 % 37 % 0 lf 200 cb 1021,8 hPa 0,0 mm 3,4 km/h (1 Bft) O-SO 123 ° 0 min 0 min 0,000 mm 0,0 UV-I 0 W/m² 5,1 °C 19,4 °C 8,3 km/h (2 Bft) 97 %
01.05.2026 21:50 19,6 °C 18,9 °C 19,6 °C 19,8 °C 13,9 °C 16,1 °C 38 % 37 % 0 lf 200 cb 1021,8 hPa 0,0 mm 3,5 km/h (1 Bft) O-SO 103 ° 0 min 0 min 0,000 mm 0,0 UV-I 0 W/m² 4,9 °C 19,6 °C 8,3 km/h (2 Bft) 97 %
01.05.2026 21:40 19,8 °C 19,4 °C 19,8 °C 20,1 °C 13,9 °C 16,1 °C 38 % 37 % 0 lf 200 cb 1021,7 hPa 0,0 mm 3,5 km/h (1 Bft) SO 143 ° 0 min 0 min 0,000 mm 0,0 UV-I 0 W/m² 5,1 °C 19,8 °C 6,2 km/h (2 Bft) 96 %
01.05.2026 21:30 20,1 °C 19,4 °C 20,1 °C 20,3 °C 13,9 °C 16,1 °C 37 % 36 % 0 lf 200 cb 1021,7 hPa 0,0 mm 3,5 km/h (1 Bft) S-SO 152 ° 0 min 0 min 0,000 mm 0,0 UV-I 0 W/m² 5,0 °C 20,1 °C 8,3 km/h (2 Bft) 96 %
01.05.2026 21:20 20,3 °C 20,0 °C 20,3 °C 20,6 °C 13,9 °C 16,1 °C 37 % 36 % 0 lf 200 cb 1021,7 hPa 0,0 mm 3,3 km/h (1 Bft) O 100 ° 0 min 0 min 0,000 mm 0,0 UV-I 0 W/m² 5,1 °C 20,3 °C 10,3 km/h (2 Bft) 94 %
01.05.2026 21:10 20,6 °C 20,0 °C 20,6 °C 20,9 °C 13,9 °C 16,7 °C 36 % 35 % 0 lf 200 cb 1021,7 hPa 0,0 mm 3,3 km/h (1 Bft) O-SO 115 ° 0 min 0 min 0,076 mm 0,0 UV-I 0 W/m² 5,0 °C 20,6 °C 6,2 km/h (2 Bft) 94 %
01.05.2026 21:00 20,9 °C 20,6 °C 20,9 °C 21,3 °C 13,9 °C 16,7 °C 36 % 34 % 0 lf 200 cb 1021,6 hPa 0,0 mm 3,2 km/h (1 Bft) O-SO 109 ° 0 min 0 min 0,000 mm 0,0 UV-I 0 W/m² 5,3 °C 20,9 °C 8,3 km/h (2 Bft) 97 %
01.05.2026 20:50 21,3 °C 20,6 °C 21,3 °C 21,6 °C 13,9 °C 17,2 °C 35 % 34 % 0 lf 200 cb 1021,7 hPa 0,0 mm 3,9 km/h (1 Bft) S-SO 165 ° 0 min 0 min 0,000 mm 0,0 UV-I 0 W/m² 5,2 °C 21,3 °C 8,3 km/h (2 Bft) 97 %
01.05.2026 20:40 21,6 °C 21,1 °C 21,6 °C 21,8 °C 13,9 °C 17,8 °C 34 % 33 % 0 lf 200 cb 1021,7 hPa 0,0 mm 3,6 km/h (1 Bft) O 101 ° 0 min 0 min 0,000 mm 0,0 UV-I 1 W/m² 5,1 °C 21,6 °C 14,5 km/h (3 Bft) 97 %
01.05.2026 20:30 21,8 °C 21,1 °C 21,8 °C 22,1 °C 13,9 °C 18,3 °C 34 % 32 % 0 lf 200 cb 1021,7 hPa 0,0 mm 4,5 km/h (1 Bft) SO 128 ° 0 min 0 min 0,000 mm 0,0 UV-I 5 W/m² 5,2 °C 21,8 °C 12,4 km/h (3 Bft) 98 %
01.05.2026 20:20 22,1 °C 21,7 °C 22,1 °C 22,3 °C 13,9 °C 18,9 °C 33 % 32 % 0 lf 200 cb 1021,7 hPa 0,0 mm 3,8 km/h (1 Bft) O-SO 120 ° 0 min 0 min 0,000 mm 0,0 UV-I 6 W/m² 5,1 °C 22,1 °C 12,4 km/h (3 Bft) 99 %
01.05.2026 20:10 22,3 °C 21,7 °C 22,3 °C 22,5 °C 13,9 °C 19,4 °C 32 % 31 % 0 lf 200 cb 1021,7 hPa 0,0 mm 6,1 km/h (2 Bft) O-SO 105 ° 0 min 0 min 0,000 mm 0,0 UV-I 7 W/m² 4,8 °C 22,3 °C 14,5 km/h (3 Bft) 100 %
01.05.2026 20:00 22,4 °C 22,2 °C 22,4 °C 22,6 °C 13,9 °C 20,0 °C 32 % 30 % 0 lf 200 cb 1021,7 hPa 0,0 mm 6,3 km/h (2 Bft) O-NO 69 ° 0 min 0 min 0,077 mm 0,0 UV-I 9 W/m² 4,9 °C 22,4 °C 18,6 km/h (3 Bft) 99 %
01.05.2026 19:50 22,6 °C 22,2 °C 22,6 °C 22,8 °C 13,9 °C 20,0 °C 31 % 30 % 0 lf 200 cb 1021,7 hPa 0,0 mm 6,0 km/h (2 Bft) O-SO 102 ° 0 min 0 min 0,000 mm 0,0 UV-I 11 W/m² 4,6 °C 22,6 °C 16,5 km/h (3 Bft) 100 %
01.05.2026 19:40 22,8 °C 22,2 °C 22,8 °C 22,9 °C 13,9 °C 20,6 °C 31 % 29 % 0 lf 200 cb 1021,6 hPa 0,0 mm 7,5 km/h (2 Bft) SO 138 ° 0 min 0 min 0,000 mm 0,0 UV-I 12 W/m² 4,8 °C 22,8 °C 16,5 km/h (3 Bft) 100 %
01.05.2026 19:30 22,9 °C 22,2 °C 22,8 °C 22,9 °C 13,9 °C 20,6 °C 31 % 29 % 0 lf 200 cb 1021,6 hPa 0,0 mm 6,4 km/h (2 Bft) O 101 ° 0 min 0 min 0,000 mm 0,0 UV-I 14 W/m² 4,9 °C 22,9 °C 14,5 km/h (3 Bft) 100 %
01.05.2026 19:20 22,9 °C 22,8 °C 22,9 °C 23,0 °C 13,9 °C 20,6 °C 31 % 29 % 0 lf 200 cb 1021,7 hPa 0,0 mm 5,8 km/h (2 Bft) SO 130 ° 0 min 0 min 0,000 mm 0,0 UV-I 16 W/m² 4,9 °C 22,9 °C 12,4 km/h (3 Bft) 100 %
01.05.2026 19:10 23,0 °C 22,8 °C 23,0 °C 23,1 °C 13,9 °C 20,6 °C 31 % 29 % 0 lf 200 cb 1021,6 hPa 0,0 mm 6,1 km/h (2 Bft) O-SO 102 ° 0 min 0 min 0,101 mm 0,0 UV-I 17 W/m² 5,0 °C 23,0 °C 14,5 km/h (3 Bft) 99 %
01.05.2026 19:00 23,1 °C 22,8 °C 23,1 °C 23,1 °C 13,9 °C 21,1 °C 30 % 29 % 0 lf 200 cb 1021,7 hPa 0,0 mm 7,1 km/h (2 Bft) S-SO 163 ° 0 min 0 min 0,000 mm 0,0 UV-I 18 W/m² 4,6 °C 23,1 °C 18,6 km/h (3 Bft) 97 %
01.05.2026 18:50 23,1 °C 22,8 °C 23,1 °C 23,2 °C 13,9 °C 21,1 °C 30 % 28 % 0 lf 200 cb 1021,6 hPa 0,0 mm 7,7 km/h (2 Bft) S-SO 152 ° 0 min 0 min 0,000 mm 0,0 UV-I 19 W/m² 4,6 °C 23,1 °C 22,7 km/h (4 Bft) 98 %
01.05.2026 18:40 23,2 °C 22,8 °C 23,2 °C 23,2 °C 13,9 °C 21,7 °C 30 % 28 % 0 lf 200 cb 1021,6 hPa 0,0 mm 8,5 km/h (2 Bft) SO 126 ° 0 min 0 min 0,000 mm 0,0 UV-I 20 W/m² 4,7 °C 23,2 °C 16,5 km/h (3 Bft) 98 %
01.05.2026 18:30 23,2 °C 23,3 °C 23,2 °C 23,3 °C 13,9 °C 21,7 °C 29 % 27 % 0 lf 200 cb 1021,8 hPa 0,0 mm 9,3 km/h (2 Bft) SO 128 ° 0 min 0 min 0,000 mm 0,0 UV-I 20 W/m² 4,2 °C 23,2 °C 22,7 km/h (4 Bft) 99 %
01.05.2026 18:20 23,3 °C 23,3 °C 23,3 °C 23,3 °C 13,9 °C 21,7 °C 29 % 27 % 0 lf 200 cb 1021,8 hPa 0,0 mm 7,9 km/h (2 Bft) O 90 ° 0 min 0 min 0,001 mm 0,0 UV-I 21 W/m² 4,3 °C 23,3 °C 16,5 km/h (3 Bft) 100 %
01.05.2026 18:10 23,3 °C 23,3 °C 23,3 °C 23,3 °C 13,9 °C 21,7 °C 29 % 27 % 0 lf 200 cb 1021,9 hPa 0,0 mm 9,2 km/h (2 Bft) S-SO 152 ° 0 min 0 min 0,152 mm 0,0 UV-I 22 W/m² 4,3 °C 23,3 °C 20,7 km/h (4 Bft) 100 %
01.05.2026 18:00 23,3 °C 23,3 °C 23,3 °C 23,4 °C 13,9 °C 22,2 °C 28 % 26 % 0 lf 200 cb 1021,9 hPa 0,0 mm 10,6 km/h (2 Bft) SO 130 ° 0 min 0 min 0,000 mm 0,0 UV-I 23 W/m² 3,8 °C 23,3 °C 18,6 km/h (3 Bft) 100 %
_ Min-Zeit 06:40 05:40 06:40 06:50 18:00 03:50 18:00 18:00 18:00 18:00 17:20 - 00:00 - - - - - - - 18:00 06:40 00:10 03:10
Minimum _ 9,9 °C 8,9 °C 9,9 °C 9,9 °C 13,9 °C 6,1 °C 28 % 26 % 0 lf 200 cb 1015,5 hPa - 0,0 km/h (0 Bft) - - - - - - - 3,8 °C 9,9 °C 0,0 km/h (0 Bft) 83 %
_ Max-Zeit 14:00 16:10 14:00 14:00 03:40 13:20 06:40 07:10 18:00 18:00 18:00 18:00 18:00 - - 09:20 18:00 13:00 13:10 13:20 16:50 14:00 18:30 18:10
Maximum _ 26,2 °C 26,7 °C 25,3 °C 26,2 °C 14,4 °C 41,1 °C 69 % 70 % 0 lf 200 cb 1021,9 hPa 0,0 mm 10,6 km/h
SO (2 Bft)
- - 10 min 0 min 0,482 mm 2,4 UV-I 711 W/m² 14,6 °C 25,9 °C 22,7 km/h
S-SO (4 Bft)
100 %
Durchschnitt _ 18,7 °C 18,2 °C 18,5 °C 18,9 °C 14,2 °C 20,2 °C 50 % 49 % 0 lf 200 cb 1020,1 hPa #0,0 mm 2,8 km/h (1 Bft) O-SO - #3:20 h #0 min. #2,337 mm 1,2 UV-I 264 W/m² 7,4 °C 18,7 °C 7,9 km/h (2 Bft) 97 %